sensor_id;sensor_type;location;lat;lon;timestamp;P1;durP1;ratioP1;P2;durP2;ratioP2
80215;SDS011;69532;37.974;23.708;2024-03-22T00:00:34;18.40;;;10.23;;
80215;SDS011;69532;37.974;23.708;2024-03-22T00:03:00;18.35;;;10.95;;
80215;SDS011;69532;37.974;23.708;2024-03-22T00:05:26;17.08;;;11.02;;
80215;SDS011;69532;37.974;23.708;2024-03-22T00:07:52;17.15;;;9.85;;
80215;SDS011;69532;37.974;23.708;2024-03-22T00:10:18;13.32;;;7.65;;
80215;SDS011;69532;37.974;23.708;2024-03-22T00:12:44;14.70;;;9.10;;
80215;SDS011;69532;37.974;23.708;2024-03-22T00:15:10;14.93;;;8.77;;
80215;SDS011;69532;37.974;23.708;2024-03-22T00:17:36;17.13;;;9.10;;
80215;SDS011;69532;37.974;23.708;2024-03-22T00:20:03;15.63;;;9.25;;
80215;SDS011;69532;37.974;23.708;2024-03-22T00:22:30;15.32;;;8.85;;
80215;SDS011;69532;37.974;23.708;2024-03-22T00:24:56;15.05;;;8.63;;
80215;SDS011;69532;37.974;23.708;2024-03-22T00:27:22;14.38;;;9.02;;
80215;SDS011;69532;37.974;23.708;2024-03-22T00:29:48;17.55;;;8.88;;
80215;SDS011;69532;37.974;23.708;2024-03-22T00:32:14;14.35;;;8.75;;
80215;SDS011;69532;37.974;23.708;2024-03-22T00:34:41;14.68;;;8.48;;
80215;SDS011;69532;37.974;23.708;2024-03-22T00:37:07;14.65;;;8.25;;
80215;SDS011;69532;37.974;23.708;2024-03-22T00:39:33;14.05;;;8.80;;
80215;SDS011;69532;37.974;23.708;2024-03-22T00:41:59;17.17;;;10.77;;
80215;SDS011;69532;37.974;23.708;2024-03-22T00:44:25;15.70;;;9.82;;
80215;SDS011;69532;37.974;23.708;2024-03-22T00:46:51;16.88;;;9.88;;
80215;SDS011;69532;37.974;23.708;2024-03-22T00:49:18;17.02;;;10.55;;
80215;SDS011;69532;37.974;23.708;2024-03-22T00:51:44;16.90;;;9.18;;
80215;SDS011;69532;37.974;23.708;2024-03-22T00:54:10;15.07;;;9.60;;
80215;SDS011;69532;37.974;23.708;2024-03-22T00:56:36;18.13;;;10.70;;
80215;SDS011;69532;37.974;23.708;2024-03-22T00:59:02;19.27;;;10.45;;
80215;SDS011;69532;37.974;23.708;2024-03-22T01:01:29;17.40;;;9.60;;
80215;SDS011;69532;37.974;23.708;2024-03-22T01:03:55;20.23;;;10.85;;
80215;SDS011;69532;37.974;23.708;2024-03-22T01:06:21;19.73;;;10.90;;
80215;SDS011;69532;37.974;23.708;2024-03-22T01:08:50;15.30;;;9.05;;
80215;SDS011;69532;37.974;23.708;2024-03-22T01:11:19;19.30;;;10.65;;
80215;SDS011;69532;37.974;23.708;2024-03-22T01:13:46;19.95;;;10.32;;
80215;SDS011;69532;37.974;23.708;2024-03-22T01:16:12;20.05;;;12.30;;
80215;SDS011;69532;37.974;23.708;2024-03-22T01:18:38;17.92;;;10.25;;
80215;SDS011;69532;37.974;23.708;2024-03-22T01:21:04;19.60;;;11.68;;
80215;SDS011;69532;37.974;23.708;2024-03-22T01:23:30;18.15;;;11.48;;
80215;SDS011;69532;37.974;23.708;2024-03-22T01:25:57;20.88;;;11.57;;
80215;SDS011;69532;37.974;23.708;2024-03-22T01:28:23;17.25;;;10.82;;
80215;SDS011;69532;37.974;23.708;2024-03-22T01:30:49;19.25;;;9.20;;
80215;SDS011;69532;37.974;23.708;2024-03-22T01:33:15;19.13;;;11.88;;
80215;SDS011;69532;37.974;23.708;2024-03-22T01:35:41;21.48;;;11.75;;
80215;SDS011;69532;37.974;23.708;2024-03-22T01:38:07;20.77;;;12.10;;
80215;SDS011;69532;37.974;23.708;2024-03-22T01:40:33;22.23;;;11.48;;
80215;SDS011;69532;37.974;23.708;2024-03-22T01:42:59;19.45;;;11.32;;
80215;SDS011;69532;37.974;23.708;2024-03-22T01:45:25;19.35;;;10.95;;
80215;SDS011;69532;37.974;23.708;2024-03-22T01:47:56;19.77;;;11.07;;
80215;SDS011;69532;37.974;23.708;2024-03-22T01:50:23;20.98;;;11.13;;
80215;SDS011;69532;37.974;23.708;2024-03-22T01:52:49;21.38;;;11.73;;
80215;SDS011;69532;37.974;23.708;2024-03-22T01:55:16;18.30;;;10.05;;
80215;SDS011;69532;37.974;23.708;2024-03-22T01:57:42;17.50;;;11.27;;
80215;SDS011;69532;37.974;23.708;2024-03-22T02:00:09;21.98;;;11.90;;
80215;SDS011;69532;37.974;23.708;2024-03-22T02:02:35;14.27;;;8.32;;
80215;SDS011;69532;37.974;23.708;2024-03-22T02:07:57;14.88;;;8.63;;
80215;SDS011;69532;37.974;23.708;2024-03-22T02:10:23;19.33;;;11.32;;
80215;SDS011;69532;37.974;23.708;2024-03-22T02:12:49;20.58;;;11.70;;
80215;SDS011;69532;37.974;23.708;2024-03-22T02:15:15;18.15;;;11.52;;
80215;SDS011;69532;37.974;23.708;2024-03-22T02:17:42;20.52;;;11.73;;
80215;SDS011;69532;37.974;23.708;2024-03-22T02:20:08;19.60;;;12.82;;
80215;SDS011;69532;37.974;23.708;2024-03-22T02:22:35;17.27;;;10.38;;
80215;SDS011;69532;37.974;23.708;2024-03-22T02:25:01;20.20;;;12.40;;
80215;SDS011;69532;37.974;23.708;2024-03-22T02:27:28;22.73;;;13.30;;
80215;SDS011;69532;37.974;23.708;2024-03-22T02:29:54;20.40;;;11.93;;
80215;SDS011;69532;37.974;23.708;2024-03-22T02:32:20;21.05;;;13.32;;
80215;SDS011;69532;37.974;23.708;2024-03-22T02:34:46;19.13;;;11.30;;
80215;SDS011;69532;37.974;23.708;2024-03-22T02:37:12;21.50;;;13.57;;
80215;SDS011;69532;37.974;23.708;2024-03-22T02:39:38;22.98;;;14.07;;
80215;SDS011;69532;37.974;23.708;2024-03-22T02:42:04;25.15;;;15.27;;
80215;SDS011;69532;37.974;23.708;2024-03-22T02:44:30;24.85;;;15.85;;
80215;SDS011;69532;37.974;23.708;2024-03-22T02:46:57;23.50;;;14.40;;
80215;SDS011;69532;37.974;23.708;2024-03-22T02:49:23;23.95;;;15.23;;
80215;SDS011;69532;37.974;23.708;2024-03-22T02:51:50;21.48;;;14.68;;
80215;SDS011;69532;37.974;23.708;2024-03-22T02:54:17;24.27;;;15.30;;
80215;SDS011;69532;37.974;23.708;2024-03-22T02:56:43;25.75;;;14.93;;
80215;SDS011;69532;37.974;23.708;2024-03-22T02:59:09;23.48;;;14.25;;
80215;SDS011;69532;37.974;23.708;2024-03-22T03:01:35;24.27;;;14.07;;
80215;SDS011;69532;37.974;23.708;2024-03-22T03:04:01;21.52;;;13.48;;
80215;SDS011;69532;37.974;23.708;2024-03-22T03:06:28;22.30;;;13.25;;
80215;SDS011;69532;37.974;23.708;2024-03-22T03:08:54;21.15;;;13.13;;
80215;SDS011;69532;37.974;23.708;2024-03-22T03:11:20;25.27;;;13.60;;
80215;SDS011;69532;37.974;23.708;2024-03-22T03:13:46;21.35;;;12.95;;
80215;SDS011;69532;37.974;23.708;2024-03-22T03:16:13;21.25;;;13.10;;
80215;SDS011;69532;37.974;23.708;2024-03-22T03:18:39;22.83;;;13.25;;
80215;SDS011;69532;37.974;23.708;2024-03-22T03:21:06;23.85;;;12.75;;
80215;SDS011;69532;37.974;23.708;2024-03-22T03:23:33;20.10;;;11.57;;
80215;SDS011;69532;37.974;23.708;2024-03-22T03:25:59;20.92;;;12.63;;
80215;SDS011;69532;37.974;23.708;2024-03-22T03:28:25;27.58;;;12.95;;
80215;SDS011;69532;37.974;23.708;2024-03-22T03:30:53;21.27;;;12.45;;
80215;SDS011;69532;37.974;23.708;2024-03-22T03:33:19;19.70;;;12.13;;
80215;SDS011;69532;37.974;23.708;2024-03-22T03:35:45;22.95;;;12.15;;
80215;SDS011;69532;37.974;23.708;2024-03-22T03:38:12;21.95;;;12.13;;
80215;SDS011;69532;37.974;23.708;2024-03-22T03:40:39;23.50;;;14.63;;
80215;SDS011;69532;37.974;23.708;2024-03-22T03:43:05;24.30;;;13.02;;
80215;SDS011;69532;37.974;23.708;2024-03-22T03:45:31;30.08;;;15.90;;
80215;SDS011;69532;37.974;23.708;2024-03-22T03:47:57;30.63;;;15.77;;
80215;SDS011;69532;37.974;23.708;2024-03-22T03:50:23;30.02;;;16.45;;
80215;SDS011;69532;37.974;23.708;2024-03-22T03:52:49;30.25;;;16.70;;
80215;SDS011;69532;37.974;23.708;2024-03-22T03:55:15;28.95;;;17.25;;
80215;SDS011;69532;37.974;23.708;2024-03-22T03:57:42;30.13;;;16.95;;
80215;SDS011;69532;37.974;23.708;2024-03-22T04:00:08;32.95;;;18.60;;
80215;SDS011;69532;37.974;23.708;2024-03-22T04:02:34;30.42;;;17.85;;
80215;SDS011;69532;37.974;23.708;2024-03-22T04:05:00;34.85;;;18.33;;
80215;SDS011;69532;37.974;23.708;2024-03-22T04:07:27;31.15;;;18.17;;
80215;SDS011;69532;37.974;23.708;2024-03-22T04:09:54;32.20;;;18.50;;
80215;SDS011;69532;37.974;23.708;2024-03-22T04:12:20;31.20;;;18.23;;
80215;SDS011;69532;37.974;23.708;2024-03-22T04:14:46;34.75;;;18.35;;
80215;SDS011;69532;37.974;23.708;2024-03-22T04:17:12;30.42;;;19.15;;
80215;SDS011;69532;37.974;23.708;2024-03-22T04:19:39;30.90;;;17.98;;
80215;SDS011;69532;37.974;23.708;2024-03-22T04:22:05;33.80;;;17.88;;
80215;SDS011;69532;37.974;23.708;2024-03-22T04:24:31;34.50;;;19.20;;
80215;SDS011;69532;37.974;23.708;2024-03-22T04:26:57;31.25;;;19.25;;
80215;SDS011;69532;37.974;23.708;2024-03-22T04:29:23;25.60;;;15.88;;
80215;SDS011;69532;37.974;23.708;2024-03-22T04:31:49;23.70;;;14.50;;
80215;SDS011;69532;37.974;23.708;2024-03-22T04:34:15;22.50;;;13.98;;
80215;SDS011;69532;37.974;23.708;2024-03-22T04:36:41;20.13;;;13.13;;
80215;SDS011;69532;37.974;23.708;2024-03-22T04:39:08;24.63;;;14.70;;
80215;SDS011;69532;37.974;23.708;2024-03-22T04:41:35;21.23;;;13.60;;
80215;SDS011;69532;37.974;23.708;2024-03-22T04:44:01;23.17;;;13.32;;
80215;SDS011;69532;37.974;23.708;2024-03-22T04:46:27;23.38;;;13.48;;
80215;SDS011;69532;37.974;23.708;2024-03-22T04:48:53;19.55;;;12.55;;
80215;SDS011;69532;37.974;23.708;2024-03-22T04:51:19;22.65;;;12.27;;
80215;SDS011;69532;37.974;23.708;2024-03-22T04:53:45;19.50;;;11.82;;
80215;SDS011;69532;37.974;23.708;2024-03-22T04:56:11;24.52;;;13.50;;
80215;SDS011;69532;37.974;23.708;2024-03-22T04:58:38;21.83;;;13.95;;
80215;SDS011;69532;37.974;23.708;2024-03-22T05:01:04;26.17;;;14.32;;
80215;SDS011;69532;37.974;23.708;2024-03-22T05:03:30;24.35;;;13.95;;
80215;SDS011;69532;37.974;23.708;2024-03-22T05:05:56;26.65;;;14.40;;
80215;SDS011;69532;37.974;23.708;2024-03-22T05:08:23;25.52;;;13.93;;
80215;SDS011;69532;37.974;23.708;2024-03-22T05:10:49;24.50;;;14.60;;
80215;SDS011;69532;37.974;23.708;2024-03-22T05:13:15;26.00;;;14.38;;
80215;SDS011;69532;37.974;23.708;2024-03-22T05:15:41;22.20;;;13.27;;
80215;SDS011;69532;37.974;23.708;2024-03-22T05:18:07;21.17;;;13.00;;
80215;SDS011;69532;37.974;23.708;2024-03-22T05:20:33;24.35;;;14.00;;
80215;SDS011;69532;37.974;23.708;2024-03-22T05:22:59;22.92;;;13.75;;
80215;SDS011;69532;37.974;23.708;2024-03-22T05:25:25;21.70;;;12.63;;
80215;SDS011;69532;37.974;23.708;2024-03-22T05:27:52;29.08;;;14.68;;
80215;SDS011;69532;37.974;23.708;2024-03-22T05:30:18;25.40;;;14.65;;
80215;SDS011;69532;37.974;23.708;2024-03-22T05:32:44;26.95;;;15.88;;
80215;SDS011;69532;37.974;23.708;2024-03-22T05:35:10;26.73;;;14.75;;
80215;SDS011;69532;37.974;23.708;2024-03-22T05:37:36;24.02;;;14.23;;
80215;SDS011;69532;37.974;23.708;2024-03-22T05:40:03;26.25;;;13.43;;
80215;SDS011;69532;37.974;23.708;2024-03-22T05:42:30;26.35;;;14.55;;
80215;SDS011;69532;37.974;23.708;2024-03-22T05:44:56;26.15;;;14.60;;
80215;SDS011;69532;37.974;23.708;2024-03-22T05:47:22;21.90;;;13.68;;
80215;SDS011;69532;37.974;23.708;2024-03-22T05:49:49;24.10;;;14.32;;
80215;SDS011;69532;37.974;23.708;2024-03-22T05:52:15;18.17;;;9.98;;
80215;SDS011;69532;37.974;23.708;2024-03-22T05:54:41;19.05;;;11.60;;
80215;SDS011;69532;37.974;23.708;2024-03-22T05:57:07;21.83;;;12.50;;
80215;SDS011;69532;37.974;23.708;2024-03-22T05:59:33;22.67;;;12.55;;
80215;SDS011;69532;37.974;23.708;2024-03-22T06:01:59;23.63;;;12.80;;
80215;SDS011;69532;37.974;23.708;2024-03-22T06:04:26;20.63;;;13.38;;
80215;SDS011;69532;37.974;23.708;2024-03-22T06:06:52;22.80;;;13.63;;
80215;SDS011;69532;37.974;23.708;2024-03-22T06:09:19;22.33;;;12.75;;
80215;SDS011;69532;37.974;23.708;2024-03-22T06:12:00;21.60;;;11.43;;
80215;SDS011;69532;37.974;23.708;2024-03-22T06:14:28;19.63;;;11.35;;
80215;SDS011;69532;37.974;23.708;2024-03-22T06:16:54;21.60;;;12.00;;
80215;SDS011;69532;37.974;23.708;2024-03-22T06:19:21;19.23;;;12.23;;
80215;SDS011;69532;37.974;23.708;2024-03-22T06:21:47;19.40;;;11.63;;
80215;SDS011;69532;37.974;23.708;2024-03-22T06:24:13;20.65;;;10.70;;
80215;SDS011;69532;37.974;23.708;2024-03-22T06:26:39;16.60;;;10.27;;
80215;SDS011;69532;37.974;23.708;2024-03-22T06:29:05;19.63;;;10.73;;
80215;SDS011;69532;37.974;23.708;2024-03-22T06:31:31;18.67;;;11.80;;
80215;SDS011;69532;37.974;23.708;2024-03-22T06:33:57;18.80;;;12.00;;
80215;SDS011;69532;37.974;23.708;2024-03-22T06:36:28;20.23;;;11.98;;
80215;SDS011;69532;37.974;23.708;2024-03-22T06:38:55;21.75;;;10.93;;
80215;SDS011;69532;37.974;23.708;2024-03-22T06:41:22;17.23;;;10.35;;
80215;SDS011;69532;37.974;23.708;2024-03-22T06:43:48;19.92;;;11.80;;
80215;SDS011;69532;37.974;23.708;2024-03-22T06:46:14;15.95;;;8.82;;
80215;SDS011;69532;37.974;23.708;2024-03-22T06:48:40;19.65;;;10.05;;
80215;SDS011;69532;37.974;23.708;2024-03-22T06:51:07;18.65;;;10.57;;
80215;SDS011;69532;37.974;23.708;2024-03-22T06:53:33;17.20;;;10.57;;
80215;SDS011;69532;37.974;23.708;2024-03-22T06:55:59;19.42;;;10.55;;
80215;SDS011;69532;37.974;23.708;2024-03-22T06:58:25;17.60;;;9.85;;
80215;SDS011;69532;37.974;23.708;2024-03-22T07:00:51;18.00;;;9.27;;
80215;SDS011;69532;37.974;23.708;2024-03-22T07:03:18;18.98;;;10.20;;
80215;SDS011;69532;37.974;23.708;2024-03-22T07:05:44;17.48;;;10.02;;
80215;SDS011;69532;37.974;23.708;2024-03-22T07:08:12;16.10;;;9.57;;
80215;SDS011;69532;37.974;23.708;2024-03-22T07:10:38;15.43;;;8.73;;
80215;SDS011;69532;37.974;23.708;2024-03-22T07:13:05;18.75;;;9.23;;
80215;SDS011;69532;37.974;23.708;2024-03-22T07:15:31;16.63;;;9.32;;
80215;SDS011;69532;37.974;23.708;2024-03-22T07:17:58;16.88;;;9.80;;
80215;SDS011;69532;37.974;23.708;2024-03-22T07:20:25;15.38;;;9.48;;
80215;SDS011;69532;37.974;23.708;2024-03-22T07:22:51;17.95;;;10.05;;
80215;SDS011;69532;37.974;23.708;2024-03-22T07:25:17;14.80;;;9.35;;
80215;SDS011;69532;37.974;23.708;2024-03-22T07:27:43;14.38;;;9.43;;
80215;SDS011;69532;37.974;23.708;2024-03-22T07:30:09;14.55;;;8.52;;
80215;SDS011;69532;37.974;23.708;2024-03-22T07:32:36;15.70;;;8.55;;
80215;SDS011;69532;37.974;23.708;2024-03-22T07:35:03;17.27;;;10.02;;
80215;SDS011;69532;37.974;23.708;2024-03-22T07:37:29;14.85;;;9.25;;
80215;SDS011;69532;37.974;23.708;2024-03-22T07:39:55;15.55;;;8.80;;
80215;SDS011;69532;37.974;23.708;2024-03-22T07:42:21;15.88;;;8.27;;
80215;SDS011;69532;37.974;23.708;2024-03-22T07:44:47;16.10;;;9.02;;
80215;SDS011;69532;37.974;23.708;2024-03-22T07:47:14;14.88;;;7.65;;
80215;SDS011;69532;37.974;23.708;2024-03-22T07:49:40;14.13;;;8.13;;
80215;SDS011;69532;37.974;23.708;2024-03-22T07:52:06;15.75;;;9.10;;
80215;SDS011;69532;37.974;23.708;2024-03-22T07:54:32;15.98;;;8.20;;
80215;SDS011;69532;37.974;23.708;2024-03-22T07:56:58;16.77;;;8.57;;
80215;SDS011;69532;37.974;23.708;2024-03-22T07:59:24;14.27;;;8.48;;
80215;SDS011;69532;37.974;23.708;2024-03-22T08:01:50;15.55;;;8.95;;
80215;SDS011;69532;37.974;23.708;2024-03-22T08:04:17;12.10;;;7.57;;
80215;SDS011;69532;37.974;23.708;2024-03-22T08:06:43;14.80;;;8.50;;
80215;SDS011;69532;37.974;23.708;2024-03-22T08:09:09;14.95;;;8.07;;
80215;SDS011;69532;37.974;23.708;2024-03-22T08:11:35;14.57;;;8.25;;
80215;SDS011;69532;37.974;23.708;2024-03-22T08:14:01;13.45;;;8.00;;
80215;SDS011;69532;37.974;23.708;2024-03-22T08:16:29;14.60;;;7.85;;
80215;SDS011;69532;37.974;23.708;2024-03-22T08:18:55;15.70;;;8.52;;
80215;SDS011;69532;37.974;23.708;2024-03-22T08:21:23;12.93;;;7.82;;
80215;SDS011;69532;37.974;23.708;2024-03-22T08:23:50;13.50;;;7.70;;
80215;SDS011;69532;37.974;23.708;2024-03-22T08:26:17;13.70;;;7.78;;
80215;SDS011;69532;37.974;23.708;2024-03-22T08:28:44;13.70;;;7.63;;
80215;SDS011;69532;37.974;23.708;2024-03-22T08:31:11;12.80;;;8.35;;
80215;SDS011;69532;37.974;23.708;2024-03-22T08:33:37;13.02;;;8.45;;
80215;SDS011;69532;37.974;23.708;2024-03-22T08:36:04;14.05;;;7.63;;
80215;SDS011;69532;37.974;23.708;2024-03-22T08:38:30;15.50;;;8.75;;
80215;SDS011;69532;37.974;23.708;2024-03-22T08:40:56;13.27;;;7.28;;
80215;SDS011;69532;37.974;23.708;2024-03-22T08:43:22;12.63;;;8.35;;
80215;SDS011;69532;37.974;23.708;2024-03-22T08:45:51;13.30;;;7.47;;
80215;SDS011;69532;37.974;23.708;2024-03-22T08:48:17;14.40;;;7.57;;
80215;SDS011;69532;37.974;23.708;2024-03-22T08:50:44;14.75;;;7.78;;
80215;SDS011;69532;37.974;23.708;2024-03-22T08:53:10;14.52;;;8.02;;
80215;SDS011;69532;37.974;23.708;2024-03-22T08:55:36;13.35;;;8.57;;
80215;SDS011;69532;37.974;23.708;2024-03-22T08:58:03;11.88;;;7.38;;
80215;SDS011;69532;37.974;23.708;2024-03-22T09:00:30;12.48;;;7.30;;
80215;SDS011;69532;37.974;23.708;2024-03-22T09:02:56;13.98;;;7.40;;
80215;SDS011;69532;37.974;23.708;2024-03-22T09:05:22;12.00;;;6.32;;
80215;SDS011;69532;37.974;23.708;2024-03-22T09:07:48;9.07;;;5.40;;
80215;SDS011;69532;37.974;23.708;2024-03-22T09:10:15;14.75;;;5.93;;
80215;SDS011;69532;37.974;23.708;2024-03-22T09:12:41;10.43;;;5.53;;
80215;SDS011;69532;37.974;23.708;2024-03-22T09:15:08;10.20;;;5.65;;
80215;SDS011;69532;37.974;23.708;2024-03-22T09:17:34;10.52;;;5.55;;
80215;SDS011;69532;37.974;23.708;2024-03-22T09:20:00;8.48;;;4.95;;
80215;SDS011;69532;37.974;23.708;2024-03-22T09:22:26;9.00;;;5.53;;
80215;SDS011;69532;37.974;23.708;2024-03-22T09:24:52;8.98;;;5.47;;
80215;SDS011;69532;37.974;23.708;2024-03-22T09:27:18;9.73;;;5.38;;
80215;SDS011;69532;37.974;23.708;2024-03-22T09:29:45;10.73;;;5.20;;
80215;SDS011;69532;37.974;23.708;2024-03-22T09:32:11;8.90;;;4.82;;
80215;SDS011;69532;37.974;23.708;2024-03-22T09:34:37;9.23;;;4.90;;
80215;SDS011;69532;37.974;23.708;2024-03-22T09:37:03;9.57;;;4.75;;
80215;SDS011;69532;37.974;23.708;2024-03-22T09:39:29;10.57;;;5.35;;
80215;SDS011;69532;37.974;23.708;2024-03-22T09:41:57;10.80;;;4.72;;
80215;SDS011;69532;37.974;23.708;2024-03-22T09:44:24;9.40;;;5.03;;
80215;SDS011;69532;37.974;23.708;2024-03-22T09:46:52;9.35;;;4.80;;
80215;SDS011;69532;37.974;23.708;2024-03-22T09:49:19;10.93;;;6.28;;
80215;SDS011;69532;37.974;23.708;2024-03-22T09:51:45;10.13;;;5.38;;
80215;SDS011;69532;37.974;23.708;2024-03-22T09:54:12;6.65;;;3.13;;
80215;SDS011;69532;37.974;23.708;2024-03-22T09:56:38;12.45;;;4.90;;
80215;SDS011;69532;37.974;23.708;2024-03-22T09:59:05;6.30;;;3.13;;
80215;SDS011;69532;37.974;23.708;2024-03-22T10:01:36;6.82;;;3.83;;
80215;SDS011;69532;37.974;23.708;2024-03-22T10:04:04;9.35;;;3.90;;
80215;SDS011;69532;37.974;23.708;2024-03-22T10:06:31;6.80;;;3.42;;
80215;SDS011;69532;37.974;23.708;2024-03-22T10:09:00;6.25;;;3.10;;
80215;SDS011;69532;37.974;23.708;2024-03-22T10:11:27;10.38;;;3.08;;
80215;SDS011;69532;37.974;23.708;2024-03-22T10:13:53;7.40;;;4.00;;
80215;SDS011;69532;37.974;23.708;2024-03-22T10:16:23;9.05;;;5.47;;
80215;SDS011;69532;37.974;23.708;2024-03-22T10:18:49;11.43;;;4.93;;
80215;SDS011;69532;37.974;23.708;2024-03-22T10:21:18;10.55;;;5.10;;
80215;SDS011;69532;37.974;23.708;2024-03-22T10:23:44;9.60;;;5.38;;
80215;SDS011;69532;37.974;23.708;2024-03-22T10:26:14;10.73;;;5.45;;
80215;SDS011;69532;37.974;23.708;2024-03-22T10:28:46;9.68;;;4.30;;
80215;SDS011;69532;37.974;23.708;2024-03-22T10:31:13;8.77;;;3.88;;
80215;SDS011;69532;37.974;23.708;2024-03-22T10:33:44;9.50;;;4.25;;
80215;SDS011;69532;37.974;23.708;2024-03-22T10:36:10;8.13;;;3.80;;
80215;SDS011;69532;37.974;23.708;2024-03-22T10:38:38;7.07;;;3.65;;
80215;SDS011;69532;37.974;23.708;2024-03-22T10:41:05;10.05;;;4.22;;
80215;SDS011;69532;37.974;23.708;2024-03-22T10:43:31;14.45;;;4.50;;
80215;SDS011;69532;37.974;23.708;2024-03-22T10:46:00;7.22;;;3.85;;
80215;SDS011;69532;37.974;23.708;2024-03-22T10:48:29;8.13;;;4.53;;
80215;SDS011;69532;37.974;23.708;2024-03-22T10:51:00;7.57;;;4.20;;
80215;SDS011;69532;37.974;23.708;2024-03-22T10:53:27;7.43;;;3.25;;
80215;SDS011;69532;37.974;23.708;2024-03-22T10:55:57;6.97;;;2.88;;
80215;SDS011;69532;37.974;23.708;2024-03-22T10:58:26;5.72;;;3.05;;
80215;SDS011;69532;37.974;23.708;2024-03-22T11:00:52;5.38;;;2.80;;
80215;SDS011;69532;37.974;23.708;2024-03-22T11:03:20;7.32;;;3.60;;
80215;SDS011;69532;37.974;23.708;2024-03-22T11:05:49;10.30;;;4.47;;
80215;SDS011;69532;37.974;23.708;2024-03-22T11:08:25;8.43;;;3.92;;
80215;SDS011;69532;37.974;23.708;2024-03-22T11:10:53;8.07;;;3.97;;
80215;SDS011;69532;37.974;23.708;2024-03-22T11:13:19;6.32;;;2.58;;
80215;SDS011;69532;37.974;23.708;2024-03-22T11:15:49;6.50;;;3.10;;
80215;SDS011;69532;37.974;23.708;2024-03-22T11:18:16;6.65;;;3.10;;
80215;SDS011;69532;37.974;23.708;2024-03-22T11:20:42;5.97;;;2.90;;
80215;SDS011;69532;37.974;23.708;2024-03-22T11:23:10;6.20;;;3.10;;
80215;SDS011;69532;37.974;23.708;2024-03-22T11:25:36;6.65;;;3.20;;
80215;SDS011;69532;37.974;23.708;2024-03-22T11:28:03;7.72;;;2.90;;
80215;SDS011;69532;37.974;23.708;2024-03-22T11:30:29;6.50;;;2.70;;
80215;SDS011;69532;37.974;23.708;2024-03-22T11:32:57;5.78;;;2.50;;
80215;SDS011;69532;37.974;23.708;2024-03-22T11:35:23;20.40;;;9.32;;
80215;SDS011;69532;37.974;23.708;2024-03-22T11:37:50;6.72;;;2.97;;
80215;SDS011;69532;37.974;23.708;2024-03-22T11:40:16;7.75;;;3.00;;
80215;SDS011;69532;37.974;23.708;2024-03-22T11:42:47;6.93;;;3.45;;
80215;SDS011;69532;37.974;23.708;2024-03-22T11:45:17;5.35;;;2.80;;
80215;SDS011;69532;37.974;23.708;2024-03-22T11:47:45;7.15;;;3.03;;
80215;SDS011;69532;37.974;23.708;2024-03-22T11:50:13;9.02;;;3.80;;
80215;SDS011;69532;37.974;23.708;2024-03-22T11:52:40;6.57;;;3.50;;
80215;SDS011;69532;37.974;23.708;2024-03-22T11:55:12;5.67;;;3.20;;
80215;SDS011;69532;37.974;23.708;2024-03-22T11:57:39;6.07;;;3.42;;
80215;SDS011;69532;37.974;23.708;2024-03-22T12:00:06;6.35;;;3.97;;
80215;SDS011;69532;37.974;23.708;2024-03-22T12:02:38;6.20;;;3.60;;
80215;SDS011;69532;37.974;23.708;2024-03-22T12:05:04;7.53;;;3.72;;
80215;SDS011;69532;37.974;23.708;2024-03-22T12:07:31;7.75;;;3.53;;
80215;SDS011;69532;37.974;23.708;2024-03-22T12:10:00;7.32;;;4.10;;
80215;SDS011;69532;37.974;23.708;2024-03-22T12:12:26;5.40;;;3.00;;
80215;SDS011;69532;37.974;23.708;2024-03-22T12:14:52;7.88;;;3.30;;
80215;SDS011;69532;37.974;23.708;2024-03-22T12:17:18;6.00;;;3.05;;
80215;SDS011;69532;37.974;23.708;2024-03-22T12:19:44;5.15;;;2.75;;
80215;SDS011;69532;37.974;23.708;2024-03-22T12:22:11;6.90;;;3.00;;
80215;SDS011;69532;37.974;23.708;2024-03-22T12:24:37;5.35;;;2.83;;
80215;SDS011;69532;37.974;23.708;2024-03-22T12:27:03;6.65;;;3.05;;
80215;SDS011;69532;37.974;23.708;2024-03-22T12:29:32;6.50;;;3.33;;
80215;SDS011;69532;37.974;23.708;2024-03-22T12:31:59;5.43;;;2.72;;
80215;SDS011;69532;37.974;23.708;2024-03-22T12:34:27;6.90;;;3.08;;
80215;SDS011;69532;37.974;23.708;2024-03-22T12:36:55;5.18;;;3.00;;
80215;SDS011;69532;37.974;23.708;2024-03-22T12:39:21;9.90;;;3.60;;
80215;SDS011;69532;37.974;23.708;2024-03-22T12:41:47;6.28;;;2.78;;
80215;SDS011;69532;37.974;23.708;2024-03-22T12:44:14;5.78;;;2.65;;
80215;SDS011;69532;37.974;23.708;2024-03-22T12:46:40;5.05;;;2.67;;
80215;SDS011;69532;37.974;23.708;2024-03-22T12:49:10;6.07;;;3.00;;
80215;SDS011;69532;37.974;23.708;2024-03-22T12:51:37;8.98;;;3.47;;
80215;SDS011;69532;37.974;23.708;2024-03-22T12:54:03;8.07;;;3.38;;
80215;SDS011;69532;37.974;23.708;2024-03-22T12:56:30;5.32;;;2.88;;
80215;SDS011;69532;37.974;23.708;2024-03-22T12:58:57;7.00;;;3.00;;
80215;SDS011;69532;37.974;23.708;2024-03-22T13:01:23;6.60;;;3.05;;
80215;SDS011;69532;37.974;23.708;2024-03-22T13:03:50;6.43;;;3.33;;
80215;SDS011;69532;37.974;23.708;2024-03-22T13:06:16;6.18;;;3.00;;
80215;SDS011;69532;37.974;23.708;2024-03-22T13:08:42;6.40;;;3.10;;
80215;SDS011;69532;37.974;23.708;2024-03-22T13:11:08;5.30;;;3.00;;
80215;SDS011;69532;37.974;23.708;2024-03-22T13:13:35;5.15;;;2.63;;
80215;SDS011;69532;37.974;23.708;2024-03-22T13:16:01;6.63;;;2.72;;
80215;SDS011;69532;37.974;23.708;2024-03-22T13:18:28;7.30;;;3.03;;
80215;SDS011;69532;37.974;23.708;2024-03-22T13:20:54;6.18;;;2.90;;
80215;SDS011;69532;37.974;23.708;2024-03-22T13:23:21;11.18;;;4.53;;
80215;SDS011;69532;37.974;23.708;2024-03-22T13:25:47;8.52;;;2.80;;
80215;SDS011;69532;37.974;23.708;2024-03-22T13:28:13;6.38;;;3.00;;
80215;SDS011;69532;37.974;23.708;2024-03-22T13:30:40;6.00;;;2.70;;
80215;SDS011;69532;37.974;23.708;2024-03-22T13:33:06;7.13;;;2.70;;
80215;SDS011;69532;37.974;23.708;2024-03-22T13:35:34;5.43;;;2.60;;
80215;SDS011;69532;37.974;23.708;2024-03-22T13:38:00;5.45;;;2.58;;
80215;SDS011;69532;37.974;23.708;2024-03-22T13:40:26;5.28;;;2.50;;
80215;SDS011;69532;37.974;23.708;2024-03-22T13:42:53;6.95;;;3.10;;
80215;SDS011;69532;37.974;23.708;2024-03-22T13:45:19;5.28;;;2.75;;
80215;SDS011;69532;37.974;23.708;2024-03-22T13:47:46;6.25;;;3.10;;
80215;SDS011;69532;37.974;23.708;2024-03-22T13:50:12;7.47;;;2.75;;
80215;SDS011;69532;37.974;23.708;2024-03-22T13:52:38;7.22;;;3.53;;
80215;SDS011;69532;37.974;23.708;2024-03-22T13:55:04;5.38;;;2.92;;
80215;SDS011;69532;37.974;23.708;2024-03-22T13:57:31;6.43;;;2.78;;
80215;SDS011;69532;37.974;23.708;2024-03-22T13:59:57;5.38;;;2.53;;
80215;SDS011;69532;37.974;23.708;2024-03-22T14:02:24;9.10;;;3.47;;
80215;SDS011;69532;37.974;23.708;2024-03-22T14:04:50;6.43;;;2.78;;
80215;SDS011;69532;37.974;23.708;2024-03-22T14:07:17;5.80;;;2.70;;
80215;SDS011;69532;37.974;23.708;2024-03-22T14:09:44;6.00;;;2.85;;
80215;SDS011;69532;37.974;23.708;2024-03-22T14:12:11;6.75;;;3.00;;
80215;SDS011;69532;37.974;23.708;2024-03-22T14:14:37;7.70;;;3.30;;
80215;SDS011;69532;37.974;23.708;2024-03-22T14:17:03;7.90;;;3.60;;
80215;SDS011;69532;37.974;23.708;2024-03-22T14:19:29;7.60;;;4.32;;